Time;durP1;ratioP1;P1;durP2;ratioP2;P2;SDS_P1;SDS_P2;PMS_P1;PMS_P2;Temp;Humidity;BMP_temperature;BMP_pressure;BME280_temperature;BME280_humidity;BME280_pressure;Samples;Min_cycle;Max_cycle;Signal;HPM_P1;HPM_P2
2023/05/03 00:02:22;;;;;;;1.10;0.90;;;20.00;62.70;;;;;;5072487;28;20269;-46
2023/05/03 00:04:53;;;;;;;2.27;1.07;;;20.00;62.60;;;;;;5078249;28;20214;-46
2023/05/03 00:07:36;;;;;;;1.17;0.90;;;20.00;62.50;;;;;;5076278;28;20197;-46
2023/05/03 00:10:07;;;;;;;2.30;0.90;;;20.00;62.60;;;;;;5090416;28;20213;-46
2023/05/03 00:12:41;;;;;;;1.20;0.80;;;20.00;62.40;;;;;;5092471;28;20201;-46
2023/05/03 00:15:10;;;;;;;2.07;1.10;;;20.00;62.40;;;;;;5059931;28;20189;-46
2023/05/03 00:17:41;;;;;;;1.00;0.90;;;20.00;62.40;;;;;;5100875;28;20201;-45
2023/05/03 00:20:10;;;;;;;1.27;0.70;;;19.90;62.40;;;;;;5069157;28;20737;-46
2023/05/03 00:22:41;;;;;;;0.90;0.80;;;19.90;62.30;;;;;;5088361;28;20235;-46
2023/05/03 00:25:09;;;;;;;2.03;0.90;;;19.90;62.20;;;;;;5092035;28;20236;-45
2023/05/03 00:27:41;;;;;;;1.37;1.10;;;19.90;62.10;;;;;;5091606;28;20204;-46
2023/05/03 00:30:10;;;;;;;0.70;0.70;;;19.90;62.10;;;;;;5073342;28;20608;-46
2023/05/03 00:32:41;;;;;;;1.30;0.90;;;19.80;62.10;;;;;;5098584;28;20188;-46
2023/05/03 00:35:11;;;;;;;0.87;0.87;;;19.80;62.00;;;;;;5091424;28;20201;-46
2023/05/03 00:37:41;;;;;;;0.90;0.90;;;19.80;61.90;;;;;;5074497;28;20184;-46
2023/05/03 00:40:11;;;;;;;1.57;0.90;;;19.80;61.90;;;;;;5088791;28;20212;-45
2023/05/03 00:42:40;;;;;;;0.87;0.80;;;19.80;61.90;;;;;;5092547;28;20652;-46
2023/05/03 00:45:12;;;;;;;1.27;1.00;;;19.80;61.90;;;;;;5091597;28;20204;-46
2023/05/03 00:47:42;;;;;;;1.07;0.90;;;19.80;61.80;;;;;;5092564;28;20263;-46
2023/05/03 00:50:13;;;;;;;0.63;0.63;;;19.80;61.80;;;;;;5073681;28;20224;-46
2023/05/03 00:52:47;;;;;;;1.13;0.70;;;19.80;61.70;;;;;;5072253;28;20213;-45
2023/05/03 00:55:16;;;;;;;1.43;0.80;;;19.80;61.70;;;;;;5088712;28;20658;-45
2023/05/03 00:57:48;;;;;;;1.47;1.07;;;19.80;61.70;;;;;;5088075;28;20197;-45
2023/05/03 01:00:16;;;;;;;1.80;0.90;;;19.70;61.50;;;;;;5090111;28;20205;-46
2023/05/03 01:02:48;;;;;;;0.90;0.70;;;19.70;61.50;;;;;;5091220;28;20197;-46
2023/05/03 01:05:17;;;;;;;1.20;0.80;;;19.70;61.50;;;;;;5082358;28;20224;-46
2023/05/03 01:08:28;;;;;;;1.20;1.10;;;19.70;61.40;;;;;;5091844;28;20205;-45
2023/05/03 01:11:07;;;;;;;1.30;0.80;;;19.70;61.30;;;;;;5086891;28;20239;-46
2023/05/03 01:14:22;;;;;;;1.07;0.83;;;19.60;61.30;;;;;;5090834;28;20568;-46
2023/05/03 01:17:05;;;;;;;1.80;0.83;;;19.70;61.30;;;;;;5073710;28;20277;-46
2023/05/03 01:19:38;;;;;;;1.00;0.67;;;19.60;61.20;;;;;;5090816;28;20681;-45
2023/05/03 01:22:41;;;;;;;0.90;0.73;;;19.60;61.20;;;;;;5088628;28;20211;-46
2023/05/03 01:25:15;;;;;;;0.73;0.63;;;19.60;61.10;;;;;;5091767;28;20197;-46
2023/05/03 01:27:44;;;;;;;1.47;0.60;;;19.60;61.10;;;;;;5075086;28;20539;-45
2023/05/03 01:30:17;;;;;;;1.00;0.70;;;19.60;61.70;;;;;;5105529;28;20209;-46
2023/05/03 01:33:00;;;;;;;1.17;0.70;;;19.60;61.10;;;;;;5100383;28;20197;-46
2023/05/03 01:35:42;;;;;;;1.27;0.90;;;19.60;61.00;;;;;;5112407;28;20204;-45
2023/05/03 01:38:12;;;;;;;1.20;0.70;;;19.60;61.00;;;;;;5100807;28;20193;-45
2023/05/03 01:40:49;;;;;;;1.33;0.60;;;19.50;60.90;;;;;;5079349;28;20221;-46
2023/05/03 01:43:32;;;;;;;0.67;0.63;;;19.50;60.80;;;;;;5103133;28;20200;-46
2023/05/03 01:46:01;;;;;;;0.90;0.60;;;19.50;60.80;;;;;;5091444;28;20212;-46
2023/05/03 01:48:38;;;;;;;2.00;0.60;;;19.50;60.80;;;;;;5110867;28;20260;-46
2023/05/03 01:51:08;;;;;;;0.90;0.70;;;19.50;60.90;;;;;;5070705;28;20520;-45
2023/05/03 01:53:37;;;;;;;0.70;0.60;;;19.40;60.80;;;;;;5093495;28;20665;-46
2023/05/03 01:56:07;;;;;;;1.20;0.70;;;19.40;60.70;;;;;;5100348;28;20262;-46
2023/05/03 01:58:38;;;;;;;0.80;0.63;;;19.50;60.70;;;;;;5103956;28;20196;-45
2023/05/03 02:01:07;;;;;;;0.97;0.83;;;19.50;60.70;;;;;;5101342;28;20212;-46
2023/05/03 02:03:36;;;;;;;2.00;0.97;;;19.40;60.70;;;;;;5081621;28;20539;-46
2023/05/03 02:06:08;;;;;;;0.87;0.80;;;19.40;60.70;;;;;;5100096;28;20278;-45
2023/05/03 02:08:36;;;;;;;1.50;0.60;;;19.40;60.60;;;;;;5106152;28;20204;-46
2023/05/03 02:11:06;;;;;;;1.37;0.70;;;19.40;60.60;;;;;;5097045;28;20228;-45
2023/05/03 02:13:49;;;;;;;0.70;0.70;;;19.40;60.60;;;;;;5096165;28;20196;-46
2023/05/03 02:16:20;;;;;;;2.00;0.73;;;19.40;60.60;;;;;;5070094;28;20217;-46
2023/05/03 02:18:50;;;;;;;0.83;0.70;;;19.40;60.60;;;;;;5092268;28;20231;-46
2023/05/03 02:21:19;;;;;;;1.00;0.90;;;19.30;60.50;;;;;;5096928;28;20250;-46
2023/05/03 02:23:47;;;;;;;1.03;0.57;;;19.40;60.60;;;;;;5093521;28;20595;-46
2023/05/03 02:26:15;;;;;;;1.13;0.80;;;19.40;60.60;;;;;;5109678;28;20193;-45
2023/05/03 02:28:45;;;;;;;1.17;0.70;;;19.30;60.40;;;;;;5078840;28;20205;-46
2023/05/03 02:31:13;;;;;;;0.77;0.70;;;19.30;60.40;;;;;;5071320;28;20224;-45
2023/05/03 02:33:43;;;;;;;0.93;0.50;;;19.30;60.40;;;;;;5089848;28;20237;-45
2023/05/03 02:36:15;;;;;;;1.13;1.03;;;19.30;60.40;;;;;;5071321;28;20259;-46
2023/05/03 02:38:44;;;;;;;0.83;0.50;;;19.30;60.30;;;;;;5103070;28;20612;-46
2023/05/03 02:41:13;;;;;;;1.50;0.97;;;19.30;60.30;;;;;;5087431;28;20568;-46
2023/05/03 02:43:46;;;;;;;0.70;0.70;;;19.20;60.20;;;;;;5082221;28;20254;-45
2023/05/03 02:46:15;;;;;;;3.23;0.70;;;19.30;60.20;;;;;;5061135;28;20221;-46
2023/05/03 02:48:45;;;;;;;0.60;0.57;;;19.20;60.80;;;;;;5085896;28;20193;-46
2023/05/03 02:51:13;;;;;;;0.57;0.50;;;19.20;60.10;;;;;;5089798;28;20571;-46
2023/05/03 02:53:42;;;;;;;1.43;0.87;;;19.20;60.10;;;;;;5088325;28;20664;-46
2023/05/03 02:56:11;;;;;;;0.70;0.60;;;19.20;60.10;;;;;;5105053;28;20193;-46
2023/05/03 02:58:40;;;;;;;1.10;0.60;;;19.20;60.10;;;;;;5091693;28;20739;-46
2023/05/03 03:01:23;;;;;;;0.60;0.60;;;19.20;60.10;;;;;;5088178;28;20293;-46
2023/05/03 03:03:53;;;;;;;0.90;0.60;;;19.20;60.00;;;;;;5082151;28;20197;-45
2023/05/03 03:06:26;;;;;;;1.20;0.77;;;19.20;59.90;;;;;;5091534;28;20232;-46
2023/05/03 03:08:58;;;;;;;0.70;0.60;;;19.20;60.00;;;;;;5097053;28;20207;-46
2023/05/03 03:11:30;;;;;;;0.60;0.60;;;19.20;59.90;;;;;;5091013;28;20223;-46
2023/05/03 03:14:04;;;;;;;0.77;0.53;;;19.20;59.90;;;;;;5089328;28;20551;-45
2023/05/03 03:16:34;;;;;;;1.80;0.60;;;19.10;59.80;;;;;;5091950;28;20216;-46
2023/05/03 03:19:05;;;;;;;1.23;0.83;;;19.10;59.70;;;;;;5082744;28;20197;-46
2023/05/03 03:21:34;;;;;;;0.93;0.80;;;19.10;59.70;;;;;;5089756;28;20197;-45
2023/05/03 03:24:07;;;;;;;1.03;0.90;;;19.10;59.70;;;;;;5087142;28;20189;-46
2023/05/03 03:26:41;;;;;;;1.33;0.77;;;19.10;59.60;;;;;;5085758;28;20191;-46
2023/05/03 03:29:15;;;;;;;0.60;0.60;;;19.10;59.70;;;;;;5095537;28;20220;-46
2023/05/03 03:31:45;;;;;;;0.87;0.50;;;19.10;59.60;;;;;;5092727;28;20185;-45
2023/05/03 03:34:13;;;;;;;1.40;0.70;;;19.10;59.60;;;;;;5079976;28;20653;-45
2023/05/03 03:36:47;;;;;;;1.50;0.70;;;19.10;59.60;;;;;;5094525;28;20642;-46
2023/05/03 03:39:17;;;;;;;0.90;0.63;;;19.10;59.50;;;;;;5093931;28;20193;-46
2023/05/03 03:41:44;;;;;;;0.50;0.50;;;19.10;59.50;;;;;;5070724;28;20209;-45
2023/05/03 03:44:16;;;;;;;1.00;0.60;;;19.10;59.50;;;;;;5076919;28;20619;-46
2023/05/03 03:46:43;;;;;;;0.80;0.60;;;19.10;59.60;;;;;;5099382;28;20244;-45
2023/05/03 03:49:14;;;;;;;1.00;0.60;;;19.10;59.40;;;;;;5089645;28;20209;-46
2023/05/03 03:51:51;;;;;;;1.77;0.80;;;19.00;59.50;;;;;;5087631;28;20205;-46
2023/05/03 03:54:20;;;;;;;1.00;0.80;;;19.00;59.40;;;;;;5075827;28;20197;-46
2023/05/03 03:56:49;;;;;;;0.60;0.60;;;19.00;59.40;;;;;;5112829;28;20250;-46
2023/05/03 03:59:33;;;;;;;0.70;0.60;;;19.00;59.40;;;;;;5088191;28;20185;-46
2023/05/03 04:02:04;;;;;;;0.77;0.70;;;19.00;59.40;;;;;;5103471;28;20558;-46
2023/05/03 04:04:35;;;;;;;0.70;0.70;;;19.00;59.40;;;;;;5085817;28;20205;-47
2023/05/03 04:07:05;;;;;;;0.80;0.70;;;19.00;59.40;;;;;;5092147;28;20211;-46
2023/05/03 04:09:35;;;;;;;1.43;0.63;;;19.00;59.40;;;;;;5112019;28;20521;-46
2023/05/03 04:12:02;;;;;;;0.90;0.60;;;19.00;59.40;;;;;;5100297;28;20379;-46
2023/05/03 04:14:34;;;;;;;0.90;0.60;;;18.90;59.30;;;;;;5098389;28;20228;-48
2023/05/03 04:17:04;;;;;;;0.90;0.60;;;18.90;59.20;;;;;;5088691;28;20562;-45
2023/05/03 04:19:37;;;;;;;0.93;0.60;;;18.90;59.20;;;;;;5075103;28;20230;-47
2023/05/03 04:22:08;;;;;;;1.27;0.70;;;18.90;59.30;;;;;;5090189;28;20500;-47
2023/05/03 04:24:39;;;;;;;0.93;0.53;;;18.90;59.20;;;;;;5092737;28;20193;-47
2023/05/03 04:27:10;;;;;;;1.13;0.80;;;18.90;59.20;;;;;;5090533;28;20193;-47
2023/05/03 04:29:43;;;;;;;0.50;0.50;;;18.90;59.20;;;;;;5088431;28;20201;-48
2023/05/03 04:32:15;;;;;;;0.87;0.63;;;18.90;59.30;;;;;;5090745;28;20197;-46
2023/05/03 04:34:47;;;;;;;0.70;0.70;;;18.90;59.20;;;;;;5091799;28;20203;-45
2023/05/03 04:37:22;;;;;;;1.77;0.50;;;18.90;59.10;;;;;;5091982;28;20189;-47
2023/05/03 04:39:54;;;;;;;0.60;0.50;;;18.90;59.10;;;;;;5086983;28;20250;-47
2023/05/03 04:42:24;;;;;;;1.60;0.80;;;18.90;59.20;;;;;;5092739;28;20833;-48
2023/05/03 04:44:55;;;;;;;1.13;0.87;;;18.90;59.10;;;;;;5091966;28;20259;-47
2023/05/03 04:47:26;;;;;;;1.07;0.50;;;18.80;59.10;;;;;;5091335;28;20224;-46
2023/05/03 04:50:02;;;;;;;0.60;0.60;;;18.90;59.20;;;;;;5088689;28;20211;-46
2023/05/03 04:52:53;;;;;;;0.73;0.50;;;18.90;59.20;;;;;;5073176;28;20258;-45
2023/05/03 04:55:35;;;;;;;0.80;0.70;;;18.80;59.10;;;;;;5091995;28;20192;-46
2023/05/03 04:58:06;;;;;;;1.00;0.50;;;18.80;59.30;;;;;;5075547;28;20189;-46
2023/05/03 05:00:40;;;;;;;2.13;0.70;;;18.80;59.20;;;;;;5091511;28;20279;-46
2023/05/03 05:03:09;;;;;;;1.60;0.70;;;18.80;59.20;;;;;;5091619;28;20216;-46
2023/05/03 05:05:37;;;;;;;0.90;0.70;;;18.80;59.20;;;;;;5089021;28;20262;-45
2023/05/03 05:08:05;;;;;;;0.50;0.50;;;18.80;59.20;;;;;;5089335;28;20205;-45
2023/05/03 05:10:40;;;;;;;1.27;0.67;;;18.80;59.10;;;;;;5091298;28;20219;-46
2023/05/03 05:13:16;;;;;;;0.73;0.73;;;18.80;59.00;;;;;;5069639;28;20200;-45
2023/05/03 05:15:42;;;;;;;0.90;0.70;;;18.80;59.00;;;;;;5091288;28;20201;-44
2023/05/03 05:18:11;;;;;;;0.87;0.60;;;18.80;59.00;;;;;;5088503;28;20212;-44
2023/05/03 05:20:43;;;;;;;1.53;0.70;;;18.80;59.00;;;;;;5090323;28;20191;-47
2023/05/03 05:23:16;;;;;;;1.07;0.80;;;18.80;59.00;;;;;;5074269;28;20203;-47
2023/05/03 05:25:47;;;;;;;1.10;0.83;;;18.80;59.00;;;;;;5083564;28;20189;-47
2023/05/03 05:28:18;;;;;;;0.90;0.63;;;18.70;58.90;;;;;;5075885;28;20231;-45
2023/05/03 05:30:49;;;;;;;1.83;0.60;;;18.70;58.90;;;;;;5096644;28;20863;-46
2023/05/03 05:33:18;;;;;;;0.83;0.83;;;18.80;59.00;;;;;;5098082;28;20246;-49
2023/05/03 05:35:48;;;;;;;1.37;0.63;;;18.80;59.00;;;;;;5097946;28;20188;-47
2023/05/03 05:38:18;;;;;;;1.47;0.87;;;18.80;59.00;;;;;;5093166;28;20273;-47
2023/05/03 05:40:50;;;;;;;1.00;0.73;;;18.80;58.90;;;;;;5100175;28;20212;-48
2023/05/03 05:43:21;;;;;;;1.33;0.80;;;18.80;58.90;;;;;;5095909;28;20220;-48
2023/05/03 05:45:50;;;;;;;1.00;0.80;;;18.80;58.90;;;;;;5087582;28;20250;-44
2023/05/03 05:48:21;;;;;;;1.80;0.90;;;18.70;58.80;;;;;;5090708;28;20725;-47
2023/05/03 05:50:55;;;;;;;4.93;0.90;;;18.80;58.70;;;;;;5111191;28;20242;-47
2023/05/03 05:53:25;;;;;;;1.67;1.00;;;18.70;58.60;;;;;;5087634;28;20722;-47
2023/05/03 05:55:56;;;;;;;3.50;0.97;;;18.70;58.60;;;;;;5088367;28;20227;-48
2023/05/03 05:58:25;;;;;;;2.07;0.77;;;18.70;58.60;;;;;;5101740;28;20193;-48
2023/05/03 06:01:00;;;;;;;3.00;0.73;;;18.70;58.60;;;;;;5101389;28;20235;-46
2023/05/03 06:03:30;;;;;;;1.63;0.70;;;18.70;58.80;;;;;;5090548;28;20200;-47
2023/05/03 06:06:01;;;;;;;2.90;0.90;;;18.70;58.80;;;;;;5085359;28;20216;-46
2023/05/03 06:08:29;;;;;;;11.43;1.43;;;18.70;58.80;;;;;;5089904;28;20197;-46
2023/05/03 06:11:00;;;;;;;4.77;1.10;;;18.70;58.80;;;;;;5090290;28;20200;-46
2023/05/03 06:13:32;;;;;;;6.00;1.40;;;18.70;58.80;;;;;;5085190;28;20204;-47
2023/05/03 06:16:15;;;;;;;4.40;1.20;;;18.70;58.60;;;;;;5100543;28;20262;-45
2023/05/03 06:18:48;;;;;;;4.23;1.10;;;18.70;58.60;;;;;;5095994;28;20212;-45
2023/05/03 06:21:18;;;;;;;5.07;1.43;;;18.70;58.60;;;;;;5099882;28;20193;-46
2023/05/03 06:23:46;;;;;;;4.07;1.53;;;18.70;58.90;;;;;;5098559;28;20204;-46
2023/05/03 06:26:19;;;;;;;4.97;1.63;;;18.70;59.40;;;;;;5098825;28;20200;-47
2023/05/03 06:28:47;;;;;;;6.70;2.03;;;18.80;59.30;;;;;;5088908;28;20217;-46
2023/05/03 06:31:18;;;;;;;5.90;1.70;;;18.80;59.20;;;;;;5089861;28;20714;-47
2023/05/03 06:33:50;;;;;;;4.70;1.40;;;18.70;59.10;;;;;;5089061;28;20622;-46
2023/05/03 06:36:21;;;;;;;4.77;2.13;;;18.80;59.20;;;;;;5078844;28;20185;-46
2023/05/03 06:38:52;;;;;;;3.73;1.70;;;18.80;59.10;;;;;;5091660;28;20188;-47
2023/05/03 06:41:34;;;;;;;6.87;1.80;;;18.70;59.10;;;;;;5087843;28;20389;-46
2023/05/03 06:44:06;;;;;;;3.63;1.23;;;18.80;59.00;;;;;;5089694;28;20224;-46
2023/05/03 06:46:38;;;;;;;8.00;1.93;;;18.70;58.90;;;;;;5090665;28;20205;-48
2023/05/03 06:49:07;;;;;;;6.37;1.60;;;18.70;59.00;;;;;;5090160;28;20240;-48
2023/05/03 06:51:39;;;;;;;8.77;1.60;;;18.70;58.90;;;;;;5090358;28;20221;-48
2023/05/03 06:54:09;;;;;;;3.20;1.60;;;18.70;58.90;;;;;;5085790;28;20209;-47
2023/05/03 06:56:38;;;;;;;6.57;1.70;;;18.70;58.90;;;;;;5097851;28;20226;-47
2023/05/03 06:59:08;;;;;;;2.60;1.40;;;18.70;58.90;;;;;;5090756;28;20197;-48
2023/05/03 07:01:38;;;;;;;2.87;1.40;;;18.70;58.90;;;;;;5091131;28;20250;-47
2023/05/03 07:04:09;;;;;;;3.50;1.53;;;18.70;58.90;;;;;;5087224;28;20217;-47
2023/05/03 07:06:52;;;;;;;3.00;1.40;;;18.70;58.90;;;;;;5104289;28;20241;-48
2023/05/03 07:09:24;;;;;;;2.87;1.53;;;18.80;58.90;;;;;;5100506;28;20602;-48
2023/05/03 07:12:10;;;;;;;4.13;1.40;;;18.80;58.90;;;;;;5087171;28;20645;-48
2023/05/03 07:14:42;;;;;;;2.37;1.30;;;18.70;58.80;;;;;;5071771;28;20219;-47
2023/05/03 07:17:13;;;;;;;2.97;1.23;;;18.70;58.80;;;;;;5069074;28;20236;-46
2023/05/03 07:19:42;;;;;;;2.03;1.00;;;18.70;58.70;;;;;;5088494;28;20196;-46
2023/05/03 07:22:11;;;;;;;2.17;1.20;;;18.70;58.80;;;;;;5080346;28;20209;-46
2023/05/03 07:24:43;;;;;;;3.83;1.30;;;18.70;58.70;;;;;;5101353;28;20204;-46
2023/05/03 07:27:14;;;;;;;3.40;1.30;;;18.70;58.70;;;;;;5089309;28;20201;-47
2023/05/03 07:29:44;;;;;;;3.00;1.17;;;18.80;58.70;;;;;;5085534;28;20224;-47
2023/05/03 07:32:12;;;;;;;2.77;1.17;;;18.70;58.60;;;;;;5087605;28;20216;-47
2023/05/03 07:34:40;;;;;;;6.53;1.50;;;18.80;58.60;;;;;;5089288;28;20193;-46
2023/05/03 07:37:11;;;;;;;2.23;1.13;;;18.80;58.50;;;;;;5088476;28;20193;-47
2023/05/03 07:39:46;;;;;;;2.33;1.20;;;18.70;58.40;;;;;;5088240;28;20649;-46
2023/05/03 07:42:15;;;;;;;1.50;1.00;;;18.80;58.40;;;;;;5093275;28;20646;-45
2023/05/03 07:44:47;;;;;;;3.50;1.20;;;18.80;58.40;;;;;;5092554;28;20213;-45
2023/05/03 07:47:16;;;;;;;1.90;1.10;;;18.80;58.40;;;;;;5093219;28;20690;-48
2023/05/03 07:49:49;;;;;;;1.63;0.90;;;18.80;58.40;;;;;;5093011;28;20216;-48
2023/05/03 07:52:21;;;;;;;2.60;1.23;;;18.80;58.40;;;;;;5089798;28;20236;-47
2023/05/03 07:54:59;;;;;;;2.57;0.90;;;18.80;58.40;;;;;;5081800;28;20204;-47
2023/05/03 07:57:30;;;;;;;1.93;1.10;;;18.80;58.40;;;;;;5081181;28;20211;-47
2023/05/03 08:00:03;;;;;;;3.27;1.40;;;18.80;58.40;;;;;;5072157;28;20204;-47
2023/05/03 08:02:38;;;;;;;1.33;0.90;;;18.80;58.40;;;;;;5077107;28;20202;-45
2023/05/03 08:05:15;;;;;;;2.60;1.10;;;18.80;58.40;;;;;;5072682;28;20213;-45
2023/05/03 08:07:46;;;;;;;1.90;1.20;;;18.80;58.40;;;;;;5077407;28;20228;-45
2023/05/03 08:10:16;;;;;;;1.73;1.00;;;18.80;58.40;;;;;;5092937;28;20645;-46
2023/05/03 08:12:46;;;;;;;2.00;1.00;;;18.80;58.40;;;;;;5090260;28;20201;-45
2023/05/03 08:15:16;;;;;;;2.33;1.00;;;18.70;58.40;;;;;;5085020;28;20258;-47
2023/05/03 08:17:44;;;;;;;3.67;1.30;;;18.80;58.50;;;;;;5070322;28;20266;-47
2023/05/03 08:20:20;;;;;;;2.37;1.03;;;18.80;58.40;;;;;;5091366;28;20333;-47
2023/05/03 08:23:00;;;;;;;2.97;1.07;;;18.80;58.40;;;;;;5087835;28;20201;-47
2023/05/03 08:25:31;;;;;;;2.47;1.00;;;18.80;58.20;;;;;;5075129;28;20200;-46
2023/05/03 08:28:04;;;;;;;2.90;1.00;;;18.80;58.20;;;;;;5085799;28;20209;-45
2023/05/03 08:30:36;;;;;;;1.73;0.80;;;18.80;58.20;;;;;;5091571;28;20216;-45
2023/05/03 08:33:09;;;;;;;2.87;1.20;;;18.80;58.30;;;;;;5082901;28;20189;-46
2023/05/03 08:35:43;;;;;;;4.17;1.33;;;18.80;58.30;;;;;;5092485;28;20177;-45
2023/05/03 08:38:15;;;;;;;1.90;1.03;;;18.80;58.20;;;;;;5091938;28;20196;-45
2023/05/03 08:40:51;;;;;;;2.37;1.30;;;18.80;58.20;;;;;;5087306;28;20219;-46
2023/05/03 08:43:22;;;;;;;3.57;1.20;;;18.80;58.30;;;;;;5074599;28;20207;-46
2023/05/03 08:45:52;;;;;;;2.40;1.13;;;18.80;58.30;;;;;;5078620;28;20615;-46
2023/05/03 08:48:20;;;;;;;1.93;1.10;;;18.80;58.20;;;;;;5090612;28;20240;-47
2023/05/03 08:50:51;;;;;;;4.57;1.10;;;18.80;58.20;;;;;;5071984;28;20208;-45
2023/05/03 08:53:24;;;;;;;2.23;0.93;;;18.80;58.00;;;;;;5071798;28;20281;-46
2023/05/03 08:56:08;;;;;;;1.80;0.93;;;18.90;58.10;;;;;;5081895;28;20255;-47
2023/05/03 08:58:36;;;;;;;2.67;0.97;;;18.80;58.00;;;;;;5072219;28;20215;-47
2023/05/03 09:01:29;;;;;;;4.47;1.20;;;18.80;58.10;;;;;;5082179;28;20209;-45
2023/05/03 09:04:00;;;;;;;3.30;1.00;;;18.90;58.10;;;;;;5073519;28;20208;-45
2023/05/03 09:06:32;;;;;;;2.40;0.93;;;18.90;58.10;;;;;;5055774;28;20534;-45
2023/05/03 09:09:30;;;;;;;2.03;1.03;;;18.90;58.00;;;;;;5080093;28;20258;-45
2023/05/03 09:12:05;;;;;;;1.73;0.90;;;18.90;57.90;;;;;;5088464;28;20244;-46
2023/05/03 09:14:43;;;;;;;2.53;0.87;;;18.90;58.00;;;;;;5091104;28;20189;-45
2023/05/03 09:17:16;;;;;;;2.13;1.23;;;18.80;57.90;;;;;;5067442;28;20273;-47
2023/05/03 09:19:55;;;;;;;2.73;0.93;;;18.80;57.80;;;;;;5075846;28;20195;-44
2023/05/03 09:22:27;;;;;;;2.43;1.10;;;18.90;58.00;;;;;;5073445;28;20197;-47
2023/05/03 09:24:59;;;;;;;1.93;1.00;;;18.90;58.00;;;;;;5089243;28;20192;-47
2023/05/03 09:27:31;;;;;;;2.27;1.20;;;18.90;58.10;;;;;;5064775;28;20597;-47
2023/05/03 09:30:17;;;;;;;2.27;1.00;;;18.90;58.10;;;;;;5085726;28;20227;-46
2023/05/03 09:32:47;;;;;;;2.03;1.00;;;18.90;58.10;;;;;;5092476;28;20239;-47
2023/05/03 09:35:19;;;;;;;2.60;1.07;;;18.90;58.10;;;;;;5059678;28;20193;-46
2023/05/03 09:37:50;;;;;;;1.87;1.10;;;18.90;58.10;;;;;;5096334;28;20193;-48
2023/05/03 09:40:24;;;;;;;2.40;0.90;;;18.90;58.00;;;;;;5099661;28;20218;-45
2023/05/03 09:43:09;;;;;;;1.33;1.00;;;18.90;58.00;;;;;;5086414;28;20669;-45
2023/05/03 09:45:39;;;;;;;2.17;0.90;;;19.00;58.00;;;;;;5086407;28;20645;-47
2023/05/03 09:48:12;;;;;;;1.83;0.90;;;18.90;57.90;;;;;;5087840;28;20752;-46
2023/05/03 09:50:43;;;;;;;2.00;0.90;;;19.00;57.90;;;;;;5085493;28;20212;-48
2023/05/03 09:53:17;;;;;;;2.23;1.00;;;19.00;58.00;;;;;;5069897;28;20290;-48
2023/05/03 09:55:55;;;;;;;2.20;0.87;;;19.00;58.00;;;;;;5073302;28;20557;-46
2023/05/03 09:58:29;;;;;;;1.23;0.90;;;19.00;58.00;;;;;;5073073;28;20281;-46
2023/05/03 10:01:01;;;;;;;2.00;0.90;;;19.00;58.00;;;;;;5073056;28;20212;-47
2023/05/03 10:03:45;;;;;;;1.60;1.00;;;19.00;58.10;;;;;;5071625;28;20209;-46
2023/05/03 10:06:34;;;;;;;1.20;0.60;;;19.00;58.10;;;;;;5089509;28;20568;-45
2023/05/03 10:09:38;;;;;;;1.40;1.03;;;19.00;58.00;;;;;;5046523;28;20275;-46
2023/05/03 10:12:11;;;;;;;0.90;0.70;;;19.00;57.90;;;;;;5082316;28;20273;-45
2023/05/03 10:14:47;;;;;;;2.40;1.20;;;19.00;57.70;;;;;;5077343;28;20205;-46
2023/05/03 10:17:43;;;;;;;3.27;1.20;;;19.00;57.50;;;;;;5077735;28;20209;-47
2023/05/03 10:20:28;;;;;;;1.33;0.70;;;19.00;57.60;;;;;;5095541;28;20215;-46
2023/05/03 10:23:09;;;;;;;2.60;0.90;;;19.10;57.70;;;;;;5091093;28;20234;-45
2023/05/03 10:26:12;;;;;;;1.10;0.80;;;19.00;57.70;;;;;;5076412;28;20201;-45
2023/05/03 10:28:44;;;;;;;2.40;0.83;;;19.00;58.10;;;;;;5082592;28;20315;-45
2023/05/03 10:31:44;;;;;;;1.60;0.93;;;19.00;57.60;;;;;;5090434;28;20201;-45
2023/05/03 10:34:38;;;;;;;2.07;1.10;;;19.10;57.70;;;;;;5089541;28;20221;-45
2023/05/03 10:37:11;;;;;;;2.10;1.00;;;19.10;57.70;;;;;;5083967;28;20204;-46
2023/05/03 10:39:44;;;;;;;1.57;1.17;;;19.10;57.80;;;;;;5072486;28;20190;-45
2023/05/03 10:42:14;;;;;;;1.70;0.93;;;19.10;57.60;;;;;;5088598;28;20193;-45
2023/05/03 10:44:53;;;;;;;1.10;0.70;;;19.10;57.50;;;;;;5090642;28;20257;-46
2023/05/03 10:47:23;;;;;;;2.43;0.90;;;19.10;57.60;;;;;;5072002;28;20196;-46
2023/05/03 10:50:18;;;;;;;1.77;0.90;;;19.10;57.50;;;;;;5094487;28;20204;-48
2023/05/03 10:52:47;;;;;;;1.40;1.00;;;19.10;57.60;;;;;;5076733;28;20628;-48
2023/05/03 10:55:23;;;;;;;2.30;1.10;;;19.10;57.60;;;;;;5074307;28;20944;-47
2023/05/03 10:57:57;;;;;;;2.77;0.90;;;19.20;57.60;;;;;;5053626;28;20184;-46
2023/05/03 11:00:42;;;;;;;2.50;1.30;;;19.20;57.60;;;;;;5083459;28;20575;-48
2023/05/03 11:03:51;;;;;;;1.33;0.90;;;19.20;57.60;;;;;;5074865;28;20208;-48
2023/05/03 11:06:50;;;;;;;1.10;1.00;;;19.30;57.60;;;;;;5090760;28;20575;-48
2023/05/03 11:09:19;;;;;;;1.17;0.70;;;19.20;57.50;;;;;;5077151;28;20273;-48
2023/05/03 11:11:48;;;;;;;2.83;1.00;;;19.20;58.10;;;;;;5091507;28;20673;-46
2023/05/03 11:14:32;;;;;;;1.50;0.90;;;19.20;57.50;;;;;;5092003;28;20209;-46
2023/05/03 11:17:03;;;;;;;1.23;0.90;;;19.20;57.50;;;;;;5090730;28;20534;-48
2023/05/03 11:19:34;;;;;;;1.40;1.10;;;19.30;57.50;;;;;;5092764;28;20192;-48
2023/05/03 11:22:04;;;;;;;1.80;1.00;;;19.20;57.50;;;;;;5092029;28;20196;-45
2023/05/03 11:24:32;;;;;;;1.43;0.80;;;19.30;57.50;;;;;;5093146;28;20196;-45
2023/05/03 11:27:02;;;;;;;1.77;1.07;;;19.30;57.60;;;;;;5092813;28;20242;-46
2023/05/03 11:29:35;;;;;;;1.80;1.07;;;19.30;57.40;;;;;;5074849;28;20258;-47
2023/05/03 11:32:07;;;;;;;1.70;0.70;;;19.30;57.50;;;;;;5090800;28;20641;-48
2023/05/03 11:34:40;;;;;;;1.30;1.07;;;19.30;57.50;;;;;;5072430;28;20258;-47
2023/05/03 11:37:17;;;;;;;1.13;0.93;;;19.30;57.40;;;;;;5092131;28;20701;-45
2023/05/03 11:39:46;;;;;;;1.47;0.70;;;19.30;57.40;;;;;;5096468;28;20200;-46
2023/05/03 11:42:15;;;;;;;1.00;0.80;;;19.40;57.50;;;;;;5111691;28;20200;-47
2023/05/03 11:44:46;;;;;;;3.17;0.90;;;19.40;57.50;;;;;;5100336;28;20201;-44
2023/05/03 11:47:16;;;;;;;2.07;0.93;;;19.40;57.50;;;;;;5092222;28;20212;-46
2023/05/03 11:49:56;;;;;;;1.93;1.00;;;19.40;57.50;;;;;;5072249;28;20248;-45
2023/05/03 11:52:26;;;;;;;1.33;0.90;;;19.40;57.50;;;;;;5069887;28;20225;-46
2023/05/03 11:55:00;;;;;;;1.53;0.83;;;19.40;57.40;;;;;;5084212;28;20201;-46
2023/05/03 11:57:32;;;;;;;0.97;0.80;;;19.40;57.30;;;;;;5084133;28;20777;-48
2023/05/03 12:00:21;;;;;;;1.47;0.70;;;19.50;57.10;;;;;;5073711;28;20212;-48
2023/05/03 12:02:58;;;;;;;1.70;0.87;;;19.50;57.10;;;;;;5082576;28;20289;-45
2023/05/03 12:05:29;;;;;;;2.07;0.90;;;19.40;57.10;;;;;;5088820;28;20244;-45
2023/05/03 12:08:11;;;;;;;1.70;0.83;;;19.50;56.90;;;;;;5090662;28;20293;-46
2023/05/03 12:10:45;;;;;;;1.27;1.03;;;19.50;57.10;;;;;;5080647;28;20201;-47
2023/05/03 12:13:27;;;;;;;1.23;0.97;;;19.50;57.20;;;;;;5083380;28;20217;-47
2023/05/03 12:16:02;;;;;;;1.73;0.93;;;19.50;57.10;;;;;;5066918;28;20209;-46
2023/05/03 12:19:01;;;;;;;1.03;0.80;;;19.50;57.00;;;;;;5054966;28;20190;-46
2023/05/03 12:21:52;;;;;;;0.87;0.87;;;19.60;57.10;;;;;;5071367;28;20190;-46
2023/05/03 12:24:42;;;;;;;1.93;0.90;;;19.60;56.90;;;;;;5089947;28;20203;-46
2023/05/03 12:27:14;;;;;;;1.60;0.90;;;19.50;57.00;;;;;;5092974;28;20588;-46
2023/05/03 12:29:45;;;;;;;1.27;0.80;;;19.60;57.10;;;;;;5069675;28;20220;-46
2023/05/03 12:32:30;;;;;;;1.60;1.00;;;19.60;57.10;;;;;;5058615;28;20213;-45
2023/05/03 12:35:00;;;;;;;1.20;0.80;;;19.60;57.10;;;;;;5082457;28;20201;-45
2023/05/03 12:37:31;;;;;;;1.57;0.90;;;19.60;57.10;;;;;;5077151;28;20617;-48
2023/05/03 12:40:08;;;;;;;1.57;1.10;;;19.60;57.20;;;;;;5049447;28;20643;-47
2023/05/03 12:42:47;;;;;;;1.43;0.93;;;19.60;57.00;;;;;;5074015;28;20205;-47
2023/05/03 12:45:15;;;;;;;1.27;0.90;;;19.60;57.00;;;;;;5073509;28;20201;-47
2023/05/03 12:47:48;;;;;;;1.37;0.80;;;19.60;57.10;;;;;;5079843;28;20771;-47
2023/05/03 12:50:21;;;;;;;1.97;1.00;;;19.70;57.00;;;;;;5062922;28;20208;-47
2023/05/03 12:52:53;;;;;;;2.00;1.03;;;19.60;56.70;;;;;;5065729;28;20232;-48
2023/05/03 12:55:23;;;;;;;1.50;0.90;;;19.70;56.90;;;;;;5057317;28;20555;-46
2023/05/03 12:57:53;;;;;;;1.00;0.80;;;19.70;56.60;;;;;;5045396;28;20261;-46
2023/05/03 13:00:43;;;;;;;1.07;0.90;;;19.70;56.90;;;;;;5059347;28;20228;-48
2023/05/03 13:03:37;;;;;;;2.07;0.90;;;19.70;57.10;;;;;;5065823;28;20225;-48
2023/05/03 13:06:19;;;;;;;1.30;0.90;;;19.70;57.10;;;;;;5070098;28;20615;-47
2023/05/03 13:08:51;;;;;;;1.20;0.90;;;19.70;57.00;;;;;;5063879;28;20201;-47
2023/05/03 13:11:31;;;;;;;2.20;0.80;;;19.70;56.90;;;;;;5044535;28;20202;-48
2023/05/03 13:14:03;;;;;;;1.13;1.00;;;19.70;56.60;;;;;;5046077;28;20225;-48
2023/05/03 13:16:33;;;;;;;2.87;1.00;;;19.80;56.60;;;;;;5050904;28;20273;-46
2023/05/03 13:19:04;;;;;;;1.43;1.00;;;19.80;56.80;;;;;;5050753;28;20501;-46
2023/05/03 13:21:36;;;;;;;2.90;1.27;;;19.80;56.90;;;;;;5052033;28;20591;-47
2023/05/03 13:24:06;;;;;;;1.13;0.97;;;19.80;56.90;;;;;;5032148;28;20202;-48